Time;durP1;ratioP1;P1;durP2;ratioP2;P2;SDS_P1;SDS_P2;PMS_P1;PMS_P2;Temp;Humidity;BMP_temperature;BMP_pressure;BME280_temperature;BME280_humidity;BME280_pressure;Samples;Min_cycle;Max_cycle;Signal;HPM_P1;HPM_P2
2022/01/16 00:04:40;;;;;;;62.78;21.37;;;;;;;-3.92;100.00;99667.94;4364448;32;20047;-74
2022/01/16 00:07:08;;;;;;;66.15;21.35;;;;;;;-3.91;100.00;99669.56;4371155;32;20043;-77
2022/01/16 00:09:38;;;;;;;57.78;20.95;;;;;;;-3.95;100.00;99668.22;4372055;32;20035;-75
2022/01/16 00:12:06;;;;;;;63.63;19.37;;;;;;;-3.94;100.00;99667.22;4370790;32;20364;-79
2022/01/16 00:14:34;;;;;;;56.72;20.75;;;;;;;-3.91;100.00;99664.31;4353846;32;20039;-75
2022/01/16 00:17:00;;;;;;;47.55;17.10;;;;;;;-3.95;100.00;99653.25;4371790;32;20082;-75
2022/01/16 00:19:27;;;;;;;42.13;15.43;;;;;;;-4.54;100.00;99573.56;4358383;32;20059;-76
2022/01/16 00:21:54;;;;;;;47.17;18.67;;;;;;;-4.00;100.00;99668.63;4369483;32;20315;-75
2022/01/16 00:24:20;;;;;;;68.25;21.87;;;;;;;-4.07;100.00;99664.88;4368910;32;20471;-75
2022/01/16 00:26:50;;;;;;;43.33;15.35;;;;;;;-4.18;100.00;99600.09;4369391;32;20400;-76
2022/01/16 00:29:16;;;;;;;54.80;17.45;;;;;;;-4.02;100.00;99636.34;4358093;32;20044;-75
2022/01/16 00:31:44;;;;;;;59.17;16.02;;;;;;;-4.14;100.00;99625.16;4367200;32;20040;-75
2022/01/16 00:34:12;;;;;;;52.22;18.40;;;;;;;-4.27;100.00;99606.22;4355050;32;20087;-75
2022/01/16 00:36:38;;;;;;;51.03;19.80;;;;;;;-4.08;100.00;99632.50;4370702;32;20059;-75
2022/01/16 00:39:05;;;;;;;56.42;17.60;;;;;;;-4.10;100.00;99634.44;4370605;32;20353;-76
2022/01/16 00:41:34;;;;;;;63.15;17.27;;;;;;;-4.29;100.00;99616.88;4355241;32;20084;-75
2022/01/16 00:44:00;;;;;;;51.17;18.00;;;;;;;-4.09;100.00;99615.03;4346588;32;20180;-76
2022/01/16 00:46:27;;;;;;;76.50;19.35;;;;;;;-4.19;100.00;99569.53;4371082;32;20485;-75
2022/01/16 00:48:54;;;;;;;45.58;16.87;;;;;;;-3.92;100.00;99636.34;4370468;32;20467;-75
2022/01/16 00:51:20;;;;;;;46.00;16.70;;;;;;;-3.99;100.00;99651.84;4371180;32;20044;-74
2022/01/16 00:53:47;;;;;;;62.35;20.27;;;;;;;-4.26;100.00;99602.59;4369680;32;20069;-75
2022/01/16 00:56:14;;;;;;;55.83;18.05;;;;;;;-3.98;100.00;99658.78;4369217;32;20192;-76
2022/01/16 00:58:41;;;;;;;54.97;17.08;;;;;;;-3.79;100.00;99684.25;4370283;32;20097;-75
2022/01/16 01:01:08;;;;;;;49.92;18.17;;;;;;;-4.00;100.00;99642.31;4347319;32;20053;-74
2022/01/16 01:03:35;;;;;;;51.25;16.35;;;;;;;-3.77;100.00;99698.06;4366288;32;20047;-75
2022/01/16 01:06:02;;;;;;;44.83;16.75;;;;;;;-3.63;100.00;99677.56;4368874;32;20051;-77
2022/01/16 01:08:29;;;;;;;47.75;16.50;;;;;;;-3.68;100.00;99657.75;4367783;32;20451;-75
2022/01/16 01:10:58;;;;;;;56.85;18.35;;;;;;;-3.69;100.00;99642.09;4370730;32;20189;-75
2022/01/16 01:16:03;;;;;;;50.70;15.48;;;;;;;-3.68;100.00;99644.59;4364335;32;20048;-74
2022/01/16 01:18:32;;;;;;;36.20;14.20;;;;;;;-3.54;100.00;99645.09;4370184;32;20165;-74
2022/01/16 01:21:02;;;;;;;35.55;13.88;;;;;;;-3.49;100.00;99642.87;4365072;32;20451;-74
2022/01/16 01:23:34;;;;;;;47.22;15.43;;;;;;;-3.83;100.00;99627.59;4365330;32;20061;-75
2022/01/16 01:26:01;;;;;;;38.40;16.05;;;;;;;-3.49;100.00;99640.25;4341025;33;20351;-77
2022/01/16 01:28:29;;;;;;;43.42;16.25;;;;;;;-3.51;100.00;99629.00;4341550;32;20456;-75
2022/01/16 01:30:55;;;;;;;46.37;15.98;;;;;;;-3.74;100.00;99608.31;4360736;32;20056;-74
2022/01/16 01:33:24;;;;;;;38.28;15.18;;;;;;;-3.71;100.00;99594.88;4364097;32;20501;-74
2022/01/16 01:35:50;;;;;;;47.28;14.73;;;;;;;-3.84;100.00;99579.41;4370296;32;20393;-75
2022/01/16 01:38:18;;;;;;;35.10;11.80;;;;;;;-3.79;100.00;99594.75;4368529;32;20043;-76
2022/01/16 01:40:50;;;;;;;32.00;13.48;;;;;;;-3.47;100.00;99610.16;4367909;32;20061;-75
2022/01/16 01:51:24;;;;;;;35.00;12.07;;;;;;;-3.50;100.00;99494.59;4370838;32;20065;-75
2022/01/16 01:53:53;;;;;;;32.67;13.38;;;;;;;-3.47;100.00;99488.22;4367190;32;20065;-75
2022/01/16 01:56:23;;;;;;;49.42;14.70;;;;;;;-3.57;100.00;99447.97;4363004;32;20379;-75
2022/01/16 01:58:50;;;;;;;42.22;11.63;;;;;;;-3.49;100.00;99458.59;4361024;32;20043;-75
2022/01/16 02:01:18;;;;;;;49.20;12.52;;;;;;;-3.39;100.00;99522.53;4369617;32;20104;-75
2022/01/16 02:03:45;;;;;;;38.83;11.85;;;;;;;-3.33;100.00;99531.66;4355414;32;20089;-76
2022/01/16 02:06:18;;;;;;;35.22;11.50;;;;;;;-3.26;100.00;99550.34;4355163;32;20714;-76
2022/01/16 02:08:47;;;;;;;33.03;11.50;;;;;;;-3.36;100.00;99568.81;4355682;33;20065;-75
2022/01/16 02:11:16;;;;;;;26.25;9.77;;;;;;;-3.40;100.00;99555.09;4361065;32;20171;-75
2022/01/16 02:13:58;;;;;;;38.63;12.15;;;;;;;-3.28;100.00;99556.56;4368113;32;20070;-76
2022/01/16 02:34:29;;;;;;;22.75;8.23;;;;;;;-3.41;100.00;99513.16;4355019;32;20057;-75
2022/01/16 02:35:50;;;;;;;23.12;7.72;;;;;;;-3.61;100.00;99501.88;4351397;33;20048;-76
2022/01/16 02:38:17;;;;;;;21.52;8.18;;;;;;;-3.55;100.00;99485.50;4355006;32;20208;-77
2022/01/16 02:41:01;;;;;;;33.60;9.63;;;;;;;-3.06;100.00;99559.78;4354233;33;20535;-74
2022/01/16 02:43:33;;;;;;;39.45;9.40;;;;;;;-3.09;100.00;99565.34;4352239;33;20421;-76
2022/01/16 02:46:37;;;;;;;29.85;8.48;;;;;;;-3.16;100.00;99522.09;4354447;33;20047;-75
2022/01/16 02:48:57;;;;;;;32.13;7.45;;;;;;;-2.89;100.00;99550.22;4352301;32;20036;-77
2022/01/16 02:51:26;;;;;;;24.92;8.70;;;;;;;-3.14;100.00;99517.53;4356947;32;20087;-75
2022/01/16 02:53:53;;;;;;;31.42;9.73;;;;;;;-3.10;100.00;99537.31;4356603;32;20061;-75
2022/01/16 02:56:21;;;;;;;26.67;7.85;;;;;;;-3.28;100.00;99485.47;4363979;32;20436;-75
2022/01/16 02:58:49;;;;;;;32.22;8.88;;;;;;;-2.80;100.00;99548.50;4357151;32;20043;-78
2022/01/16 03:01:15;;;;;;;45.47;9.15;;;;;;;-2.90;100.00;99531.91;4357436;32;20043;-76
2022/01/16 03:03:42;;;;;;;19.02;6.57;;;;;;;-2.83;100.00;99549.63;4356933;32;20048;-76
2022/01/16 03:06:09;;;;;;;23.30;8.10;;;;;;;-3.07;100.00;99505.41;4357093;32;20054;-76
2022/01/16 03:08:35;;;;;;;33.67;7.60;;;;;;;-3.02;100.00;99508.41;4369476;32;20361;-76
2022/01/16 03:11:22;;;;;;;27.60;9.60;;;;;;;-2.92;100.00;99492.53;4356810;32;20075;-78
2022/01/16 03:13:50;;;;;;;23.20;7.25;;;;;;;-2.67;100.00;99538.38;4357482;32;20039;-76
2022/01/16 03:16:21;;;;;;;22.30;6.93;;;;;;;-2.83;100.00;99530.34;4344464;32;20043;-75
2022/01/16 03:24:33;;;;;;;20.12;6.78;;;;;;;-2.51;100.00;99547.44;4368365;32;20036;-76
2022/01/16 03:27:03;;;;;;;28.85;8.68;;;;;;;-2.61;100.00;99532.50;4364539;32;20052;-76
2022/01/16 03:29:30;;;;;;;23.15;6.85;;;;;;;-2.64;100.00;99522.25;4355993;32;20377;-75
2022/01/16 03:31:58;;;;;;;28.38;8.65;;;;;;;-2.61;100.00;99519.31;4356267;32;20039;-76
2022/01/16 03:34:26;;;;;;;25.23;7.82;;;;;;;-2.56;100.00;99508.31;4355313;32;20039;-75
2022/01/16 03:36:52;;;;;;;34.10;8.02;;;;;;;-2.86;100.00;99464.75;4370459;32;20055;-75
2022/01/16 03:39:19;;;;;;;26.95;7.57;;;;;;;-2.82;100.00;99463.50;4371998;32;20151;-75
2022/01/16 03:41:46;;;;;;;32.33;7.40;;;;;;;-2.57;100.00;99489.06;4359237;32;20427;-75
2022/01/16 03:44:13;;;;;;;19.35;6.72;;;;;;;-2.81;100.00;99454.56;4368657;32;20077;-76
2022/01/16 03:46:42;;;;;;;23.00;8.20;;;;;;;-2.51;100.00;99492.03;4366436;32;20071;-75
2022/01/16 03:49:14;;;;;;;37.42;7.57;;;;;;;-2.51;100.00;99477.03;4370408;32;20043;-75
2022/01/16 03:51:43;;;;;;;21.08;7.72;;;;;;;-2.46;100.00;99489.78;4357766;32;20031;-76
2022/01/16 03:54:13;;;;;;;21.95;7.53;;;;;;;-2.83;100.00;99427.56;4370341;32;20059;-75
2022/01/16 03:56:40;;;;;;;13.77;5.65;;;;;;;-2.48;100.00;99468.00;4358806;32;20345;-75
2022/01/16 03:59:06;;;;;;;19.67;7.87;;;;;;;-2.76;100.00;99439.13;4371466;32;20380;-75
2022/01/16 04:01:34;;;;;;;15.90;6.82;;;;;;;-2.69;100.00;99437.53;4348953;32;20422;-75
2022/01/16 04:04:01;;;;;;;28.83;7.97;;;;;;;-2.40;100.00;99465.41;4352681;32;20032;-74
2022/01/16 04:06:28;;;;;;;19.40;7.25;;;;;;;-2.30;100.00;99454.75;4356808;32;20079;-75
2022/01/16 04:08:55;;;;;;;32.47;7.80;;;;;;;-2.47;100.00;99448.53;4355659;32;20048;-74
2022/01/16 04:11:24;;;;;;;24.40;7.18;;;;;;;-2.69;100.00;99413.81;4356602;32;20341;-75
2022/01/16 04:13:54;;;;;;;27.25;8.18;;;;;;;-2.58;100.00;99447.84;4355810;32;20039;-75
2022/01/16 04:16:23;;;;;;;27.15;7.78;;;;;;;-2.54;100.00;99410.62;4356976;32;20056;-74
2022/01/16 04:18:51;;;;;;;18.10;7.10;;;;;;;-2.32;100.00;99431.19;4343492;32;20036;-74
2022/01/16 04:21:19;;;;;;;18.50;7.75;;;;;;;-2.70;100.00;99382.34;4356159;32;20078;-75
2022/01/16 04:23:46;;;;;;;27.70;8.15;;;;;;;-2.48;100.00;99425.81;4356346;32;20061;-74
2022/01/16 04:26:14;;;;;;;26.80;7.65;;;;;;;-2.39;100.00;99424.88;4341217;32;20079;-75
2022/01/16 04:28:41;;;;;;;30.85;7.47;;;;;;;-2.37;100.00;99417.62;4356495;32;20286;-75
2022/01/16 04:31:08;;;;;;;33.15;8.50;;;;;;;-2.36;100.00;99414.03;4343468;32;20057;-74
2022/01/16 04:33:35;;;;;;;28.90;8.35;;;;;;;-2.45;100.00;99399.13;4343358;32;20053;-75
2022/01/16 04:36:02;;;;;;;22.83;8.82;;;;;;;-2.63;100.00;99371.03;4356449;32;20342;-78
2022/01/16 04:38:29;;;;;;;30.95;9.00;;;;;;;-2.52;100.00;99392.81;4336288;32;20044;-76
2022/01/16 04:43:47;;;;;;;26.98;8.45;;;;;;;-2.70;100.00;99363.88;4353041;32;20044;-76
2022/01/16 04:46:21;;;;;;;31.58;7.40;;;;;;;-2.34;100.00;99396.22;4339759;33;20048;-75
2022/01/16 04:48:49;;;;;;;25.23;7.57;;;;;;;-2.47;100.00;99369.44;4341589;32;20439;-76
2022/01/16 04:51:16;;;;;;;18.42;7.28;;;;;;;-2.62;100.00;99348.09;4340261;33;20331;-75
2022/01/16 04:53:49;;;;;;;18.42;5.75;;;;;;;-2.41;100.00;99390.75;4360430;32;20327;-75
2022/01/16 04:56:16;;;;;;;23.95;8.13;;;;;;;-2.45;100.00;99394.69;4370109;32;20073;-75
2022/01/16 04:58:43;;;;;;;17.35;7.30;;;;;;;-2.29;100.00;99388.66;4370627;32;20400;-75
2022/01/16 05:01:10;;;;;;;26.95;7.62;;;;;;;-2.18;100.00;99384.09;4370058;32;20039;-75
2022/01/16 05:03:38;;;;;;;23.10;9.38;;;;;;;-2.53;100.00;99338.44;4357420;32;20048;-74
2022/01/16 05:06:05;;;;;;;20.55;8.68;;;;;;;-2.36;100.00;99363.91;4355978;32;20036;-77
2022/01/16 05:08:32;;;;;;;16.40;6.25;;;;;;;-2.40;100.00;99357.28;4366556;32;20075;-76
2022/01/16 05:10:59;;;;;;;22.90;7.43;;;;;;;-2.36;100.00;99356.00;4356360;32;20039;-75
2022/01/16 05:16:54;;;;;;;25.42;8.40;;;;;;;-2.23;100.00;99366.91;4341087;32;20064;-76
2022/01/16 05:19:20;;;;;;;19.37;7.95;;;;;;;-2.26;100.00;99361.97;4367914;32;20081;-76
2022/01/16 05:21:47;;;;;;;18.48;6.87;;;;;;;-2.31;100.00;99352.84;4367533;32;20039;-74
2022/01/16 05:24:14;;;;;;;26.95;7.87;;;;;;;-2.11;100.00;99358.72;4366443;32;20065;-75
2022/01/16 05:26:43;;;;;;;18.00;6.47;;;;;;;-2.47;100.00;99311.41;4368045;32;20409;-76
2022/01/16 05:29:11;;;;;;;23.87;8.98;;;;;;;-2.40;100.00;99313.25;4359994;32;20040;-72
2022/01/16 05:31:44;;;;;;;20.08;6.30;;;;;;;-2.22;100.00;99352.75;4354151;32;20078;-74
2022/01/16 05:34:13;;;;;;;22.67;7.35;;;;;;;-2.47;100.00;99295.59;4356140;32;20048;-73
2022/01/16 05:36:40;;;;;;;16.90;7.97;;;;;;;-2.17;100.00;99327.69;4352751;32;20040;-73
2022/01/16 05:39:07;;;;;;;20.98;7.72;;;;;;;-2.40;100.00;99302.72;4360439;32;20066;-74
2022/01/16 05:41:35;;;;;;;32.40;8.05;;;;;;;-2.18;100.00;99331.34;4362779;32;20167;-76
2022/01/16 05:44:02;;;;;;;33.95;8.10;;;;;;;-2.11;100.00;99321.78;4362923;32;20073;-73
2022/01/16 05:46:29;;;;;;;25.85;6.07;;;;;;;-2.20;100.00;99303.28;4348426;32;20135;-74
2022/01/16 05:48:56;;;;;;;34.40;8.35;;;;;;;-2.15;100.00;99315.16;4358440;32;20384;-74
2022/01/16 05:51:22;;;;;;;22.35;8.35;;;;;;;-2.27;100.00;99275.88;4360404;32;20036;-76
2022/01/16 05:53:51;;;;;;;21.62;6.10;;;;;;;-2.30;100.00;99270.94;4349794;32;20061;-74
2022/01/16 05:56:19;;;;;;;24.63;7.75;;;;;;;-2.31;100.00;99263.19;4353204;32;20035;-75
2022/01/16 05:58:46;;;;;;;26.75;7.70;;;;;;;-2.11;100.00;99308.59;4350854;32;20044;-74
2022/01/16 06:01:13;;;;;;;23.15;7.72;;;;;;;-2.04;100.00;99306.97;4363014;32;20437;-74
2022/01/16 06:03:41;;;;;;;23.58;8.13;;;;;;;-2.05;100.00;99310.59;4347534;32;20043;-75
2022/01/16 06:06:09;;;;;;;26.05;10.48;;;;;;;-2.13;100.00;99276.28;4350874;32;21024;-74
2022/01/16 06:08:38;;;;;;;28.02;9.52;;;;;;;-1.81;100.00;99306.34;4362878;32;20036;-76
2022/01/16 06:11:05;;;;;;;43.87;9.93;;;;;;;-1.86;100.00;99312.94;4347893;32;20065;-75
2022/01/16 06:13:31;;;;;;;28.55;10.35;;;;;;;-1.97;100.00;99307.97;4363308;32;20439;-75
2022/01/16 06:15:58;;;;;;;24.42;8.48;;;;;;;-1.96;100.00;99299.06;4347696;32;20073;-75
2022/01/16 06:18:27;;;;;;;32.25;11.48;;;;;;;-2.13;100.00;99276.28;4362548;32;20082;-74
2022/01/16 06:20:53;;;;;;;24.20;8.85;;;;;;;-2.24;100.00;99254.47;4361754;32;20338;-74
2022/01/16 06:23:21;;;;;;;36.92;10.95;;;;;;;-1.91;100.00;99301.22;4363516;32;20043;-74
2022/01/16 06:25:54;;;;;;;26.05;9.52;;;;;;;-2.06;100.00;99264.06;4365486;32;20058;-75
2022/01/16 06:28:25;;;;;;;25.67;8.27;;;;;;;-1.95;100.00;99299.87;4363386;32;20131;-74
2022/01/16 06:30:52;;;;;;;30.95;9.35;;;;;;;-2.42;100.00;99203.66;4352073;32;20047;-74
2022/01/16 06:33:18;;;;;;;31.85;10.10;;;;;;;-1.99;100.00;99273.00;4358018;32;20454;-75
2022/01/16 06:35:45;;;;;;;24.55;9.75;;;;;;;-1.91;100.00;99259.00;4355585;32;20086;-77
2022/01/16 06:38:12;;;;;;;29.70;9.90;;;;;;;-1.87;100.00;99266.44;4357529;32;20051;-76
2022/01/16 06:40:38;;;;;;;41.50;10.43;;;;;;;-1.91;100.00;99270.37;4365622;32;20077;-75
2022/01/16 06:43:04;;;;;;;28.87;9.52;;;;;;;-1.87;100.00;99268.22;4358728;32;20083;-74
2022/01/16 06:45:31;;;;;;;26.87;9.07;;;;;;;-1.85;100.00;99259.16;4360342;32;20048;-75
2022/01/16 06:47:58;;;;;;;24.37;8.15;;;;;;;-1.75;100.00;99253.72;4359336;32;20065;-75
2022/01/16 06:50:24;;;;;;;26.20;9.05;;;;;;;-1.85;100.00;99259.16;4359074;32;20098;-76
2022/01/16 06:52:51;;;;;;;17.25;8.30;;;;;;;-1.91;100.00;99233.41;4358598;32;20054;-73
2022/01/16 06:55:17;;;;;;;22.75;8.82;;;;;;;-1.73;100.00;99245.63;4358730;32;20410;-74
2022/01/16 06:57:44;;;;;;;20.12;7.45;;;;;;;-1.78;100.00;99247.94;4370365;32;20142;-74
2022/01/16 07:00:11;;;;;;;26.25;10.40;;;;;;;-1.93;100.00;99232.75;4359227;32;20069;-75
2022/01/16 07:02:38;;;;;;;19.92;8.13;;;;;;;-2.02;100.00;99207.34;4370397;32;20055;-74
2022/01/16 07:05:05;;;;;;;26.92;8.45;;;;;;;-1.77;100.00;99249.56;4372839;32;20083;-74
2022/01/16 07:07:32;;;;;;;23.67;9.07;;;;;;;-2.00;100.00;99213.28;4370675;32;20044;-74
2022/01/16 07:09:59;;;;;;;40.33;9.75;;;;;;;-1.65;100.00;99254.37;4369806;32;20213;-74
2022/01/16 07:12:25;;;;;;;28.52;8.45;;;;;;;-1.59;100.00;99252.06;4366690;32;20483;-76
2022/01/16 07:14:52;;;;;;;29.02;9.23;;;;;;;-1.58;100.00;99251.91;4357288;32;20069;-75
2022/01/16 07:17:20;;;;;;;33.20;9.43;;;;;;;-1.59;100.00;99238.87;4365654;32;20086;-74
2022/01/16 07:19:51;;;;;;;32.90;10.13;;;;;;;-1.62;100.00;99236.56;4364728;32;20040;-75
2022/01/16 07:22:23;;;;;;;31.02;10.63;;;;;;;-1.65;100.00;99237.69;4362499;32;20039;-75
2022/01/16 07:24:54;;;;;;;27.80;10.20;;;;;;;-1.62;100.00;99247.13;4361914;32;20828;-75
2022/01/16 07:27:21;;;;;;;34.53;8.52;;;;;;;-1.93;100.00;99205.53;4356979;32;20388;-74
2022/01/16 07:29:47;;;;;;;42.72;10.70;;;;;;;-2.12;100.00;99180.28;4357399;32;20040;-73
2022/01/16 07:32:21;;;;;;;42.40;9.80;;;;;;;-1.64;100.00;99223.53;4357488;32;20117;-76
2022/01/16 07:34:48;;;;;;;26.98;9.35;;;;;;;-1.87;100.00;99187.25;4355128;32;20066;-73
2022/01/16 07:37:16;;;;;;;33.33;11.43;;;;;;;-1.75;100.00;99194.81;4346368;32;20032;-73
2022/01/16 07:39:46;;;;;;;;;;;;;;;-1.70;100.00;99235.56;4357323;32;20377;-75
2022/01/16 07:42:13;;;;;;;38.92;13.88;;;;;;;-1.49;100.00;99237.69;4357111;32;19935;-73
2022/01/16 07:44:39;;;;;;;37.83;11.05;;;;;;;-1.61;100.00;99241.69;4362134;32;20065;-73
2022/01/16 07:47:06;;;;;;;40.58;12.18;;;;;;;-1.83;100.00;99246.63;4367556;32;20083;-74
2022/01/16 07:49:34;;;;;;;29.55;9.45;;;;;;;-1.81;100.00;99243.00;4368730;32;20047;-75
2022/01/16 07:52:01;;;;;;;27.17;10.15;;;;;;;-1.71;100.00;99246.28;4370236;32;20414;-74
2022/01/16 07:54:28;;;;;;;34.13;10.80;;;;;;;-1.80;100.00;99234.91;4360841;32;20044;-75
2022/01/16 07:56:55;;;;;;;49.13;13.88;;;;;;;-1.77;100.00;99249.56;4355073;32;20503;-74
2022/01/16 07:59:21;;;;;;;34.00;11.30;;;;;;;-1.67;100.00;99255.53;4356287;32;20189;-76
2022/01/16 08:01:54;;;;;;;27.37;10.27;;;;;;;-1.60;100.00;99251.22;4341358;33;20382;-74
2022/01/16 08:04:20;;;;;;;35.30;10.88;;;;;;;-1.75;100.00;99242.34;4334838;32;20036;-75
2022/01/16 08:06:47;;;;;;;30.37;9.15;;;;;;;-1.71;100.00;99251.56;4354328;32;20392;-76
2022/01/16 08:09:13;;;;;;;30.00;10.77;;;;;;;-1.85;100.00;99251.25;4340317;33;20049;-75
2022/01/16 08:11:40;;;;;;;31.25;8.93;;;;;;;-2.11;100.00;99211.78;4341054;33;20032;-74
2022/01/16 08:14:07;;;;;;;33.60;10.93;;;;;;;-1.90;100.00;99245.63;4347378;32;20044;-74
2022/01/16 08:16:33;;;;;;;39.25;9.73;;;;;;;-2.03;100.00;99219.72;4357689;32;20039;-74
2022/01/16 08:19:00;;;;;;;33.05;9.52;;;;;;;-1.87;100.00;99234.75;4354120;32;20061;-75
2022/01/16 08:21:26;;;;;;;41.72;12.35;;;;;;;-1.93;100.00;99243.31;4355823;32;20085;-73
2022/01/16 08:23:53;;;;;;;46.50;11.98;;;;;;;-2.10;100.00;99194.97;4343510;32;20028;-74
2022/01/16 08:26:20;;;;;;;39.72;11.35;;;;;;;-1.92;100.00;99209.81;4356873;32;20051;-74
2022/01/16 08:28:46;;;;;;;44.90;12.80;;;;;;;-1.70;100.00;99224.19;4356604;32;20069;-74
2022/01/16 08:31:13;;;;;;;26.20;8.43;;;;;;;-2.07;100.00;99186.72;4354711;32;20180;-75
2022/01/16 08:33:40;;;;;;;35.65;10.40;;;;;;;-2.15;100.00;99188.53;4355507;32;20401;-74
2022/01/16 08:36:06;;;;;;;39.58;11.48;;;;;;;-1.96;100.00;99225.16;4355885;32;20380;-74
2022/01/16 08:38:33;;;;;;;22.02;9.30;;;;;;;-1.94;100.00;99223.19;4356372;32;20039;-74
2022/01/16 08:41:02;;;;;;;33.53;11.05;;;;;;;-2.17;100.00;99175.53;4359390;32;20400;-74
2022/01/16 08:43:30;;;;;;;34.00;10.38;;;;;;;-1.83;100.00;99208.84;4355609;32;20339;-76
2022/01/16 08:45:56;;;;;;;37.00;10.75;;;;;;;-2.06;100.00;99174.34;4370698;32;20052;-74
2022/01/16 08:48:24;;;;;;;22.83;9.07;;;;;;;-2.16;100.00;99160.50;4364383;32;20118;-74
2022/01/16 08:50:50;;;;;;;25.02;9.45;;;;;;;-1.76;100.00;99201.06;4358532;32;20040;-74
2022/01/16 08:53:16;;;;;;;25.60;9.05;;;;;;;-1.94;100.00;99204.72;4361789;32;20437;-79
2022/01/16 08:55:44;;;;;;;12.50;6.72;;;;;;;-2.19;100.00;99156.38;4369020;32;20055;-74
2022/01/16 08:58:10;;;;;;;42.05;10.55;;;;;;;-1.97;100.00;99170.72;4369928;32;20369;-73
2022/01/16 09:00:36;;;;;;;37.90;11.02;;;;;;;-2.05;100.00;99139.06;4367822;32;20048;-75
2022/01/16 09:03:04;;;;;;;29.67;11.43;;;;;;;-1.91;100.00;99127.03;4363778;32;20035;-74
2022/01/16 09:05:30;;;;;;;27.40;10.52;;;;;;;-1.81;100.00;99161.16;4350500;32;20049;-74
2022/01/16 09:08:04;;;;;;;29.23;9.88;;;;;;;-1.94;100.00;99154.56;4363894;32;20861;-75
2022/01/16 09:10:31;;;;;;;36.08;10.80;;;;;;;-1.97;100.00;99117.94;4361544;32;20052;-75
2022/01/16 09:12:58;;;;;;;30.10;12.30;;;;;;;-1.88;100.00;99116.94;4362440;32;20035;-75
2022/01/16 09:15:24;;;;;;;32.78;11.82;;;;;;;-1.63;100.00;99122.19;4351582;32;20028;-77
2022/01/16 09:17:52;;;;;;;40.80;11.95;;;;;;;-1.84;100.00;99102.41;4349062;32;20050;-75
2022/01/16 09:20:18;;;;;;;35.33;14.35;;;;;;;-1.33;100.00;99140.91;4370806;32;20041;-75
2022/01/16 09:22:45;;;;;;;33.58;11.23;;;;;;;-1.38;100.00;99135.31;4363568;32;20036;-74
2022/01/16 09:25:13;;;;;;;31.95;11.05;;;;;;;-1.64;100.00;99083.56;4365676;32;20062;-74
2022/01/16 09:27:40;;;;;;;41.60;13.13;;;;;;;-1.61;100.00;99104.38;4360314;32;20061;-75
2022/01/16 09:30:09;;;;;;;29.37;9.80;;;;;;;-1.86;100.00;99088.56;4364510;32;20118;-75
2022/01/16 09:32:36;;;;;;;30.92;10.68;;;;;;;-1.68;100.00;99127.13;4368317;32;20075;-75
2022/01/16 09:35:05;;;;;;;25.85;10.70;;;;;;;-1.60;100.00;99113.91;4362150;32;20061;-75
2022/01/16 09:37:31;;;;;;;33.33;12.02;;;;;;;-1.48;100.00;99104.66;4367819;32;20035;-75
2022/01/16 09:39:59;;;;;;;36.08;12.48;;;;;;;-1.88;100.00;99063.34;4370368;32;20077;-75
2022/01/16 09:42:27;;;;;;;33.25;12.25;;;;;;;-1.55;100.00;99106.31;4370062;32;20095;-75
2022/01/16 09:44:54;;;;;;;40.78;12.63;;;;;;;-1.67;100.00;99108.50;4368574;32;20069;-74
2022/01/16 09:47:22;;;;;;;28.83;10.98;;;;;;;-1.48;100.00;99102.00;4354209;32;20044;-75
2022/01/16 09:49:49;;;;;;;42.65;12.52;;;;;;;-1.73;100.00;99071.37;4356601;32;20040;-81
2022/01/16 09:52:15;;;;;;;40.53;13.07;;;;;;;-1.33;100.00;99098.66;4368959;32;20059;-74
2022/01/16 09:54:43;;;;;;;35.10;13.68;;;;;;;-1.18;100.00;99096.94;4359029;32;20039;-74
2022/01/16 09:57:12;;;;;;;37.25;11.48;;;;;;;-1.30;100.00;99103.59;4362831;32;20069;-79
2022/01/16 09:59:39;;;;;;;39.75;13.77;;;;;;;-1.53;100.00;99072.66;4338427;33;20078;-73
2022/01/16 10:02:06;;;;;;;34.75;10.73;;;;;;;-1.24;100.00;99096.81;4340383;33;20039;-75
2022/01/16 10:04:38;;;;;;;31.08;11.40;;;;;;;-1.26;100.00;99097.00;4341655;33;20349;-73
2022/01/16 10:07:08;;;;;;;29.97;12.00;;;;;;;-1.48;100.00;99091.44;4355319;32;20043;-73
2022/01/16 10:09:37;;;;;;;38.30;13.25;;;;;;;-1.47;100.00;99077.25;4353216;32;20101;-72
2022/01/16 10:12:13;;;;;;;43.22;13.10;;;;;;;-1.43;100.00;99039.94;4356398;32;20085;-73
2022/01/16 10:14:47;;;;;;;32.90;10.95;;;;;;;-1.36;100.00;99035.59;4341226;32;20069;-73
2022/01/16 10:17:19;;;;;;;36.13;13.52;;;;;;;-1.28;100.00;99083.09;4339633;33;20020;-78
2022/01/16 10:20:01;;;;;;;34.75;12.25;;;;;;;-1.16;100.00;99073.81;4340083;32;20094;-75
2022/01/16 10:22:43;;;;;;;32.85;12.05;;;;;;;-1.37;100.00;99039.22;4336749;33;20431;-73
2022/01/16 10:25:11;;;;;;;;;;;;;;;-1.42;100.00;99031.00;4341223;32;20040;-73
2022/01/16 10:27:39;;;;;;;41.10;13.82;;;;;;;-1.22;100.00;99082.41;4340468;33;20237;-73
2022/01/16 10:30:08;;;;;;;30.25;12.02;;;;;;;-1.33;100.00;99067.75;4349389;33;20069;-75
2022/01/16 10:32:46;;;;;;;43.58;16.10;;;;;;;-1.53;100.00;99024.28;4349547;33;20164;-77
2022/01/16 10:35:14;;;;;;;41.05;14.40;;;;;;;-1.35;100.00;99026.69;4337897;33;20063;-75
2022/01/16 10:37:45;;;;;;;41.25;15.05;;;;;;;-1.09;100.00;99026.37;4338078;33;20078;-75
2022/01/16 10:40:15;;;;;;;48.60;16.52;;;;;;;-1.29;100.00;99020.72;4338162;33;20434;-75
2022/01/16 10:42:51;;;;;;;43.78;15.15;;;;;;;-0.75;100.00;99065.66;4351022;33;20085;-76
2022/01/16 10:45:22;;;;;;;38.50;14.87;;;;;;;-0.94;100.00;99018.53;4339990;33;20347;-74
2022/01/16 10:47:54;;;;;;;52.58;14.10;;;;;;;-1.26;100.00;99009.81;4340863;33;20039;-72
2022/01/16 10:50:59;;;;;;;50.53;14.18;;;;;;;-0.86;100.00;99052.00;4352364;33;20077;-74
2022/01/16 10:53:28;;;;;;;43.95;16.25;;;;;;;-1.04;100.00;99033.78;4305760;33;20402;-74
2022/01/16 10:55:57;;;;;;;33.35;14.55;;;;;;;-1.22;100.00;99005.78;4292902;33;20370;-74
2022/01/16 10:58:27;;;;;;;43.97;13.27;;;;;;;-1.70;100.00;98954.88;4293035;33;20049;-73
2022/01/16 11:01:03;;;;;;;46.88;14.23;;;;;;;-1.17;100.00;99027.22;4307895;33;20063;-73
2022/01/16 11:03:45;;;;;;;39.30;14.13;;;;;;;-1.52;100.00;98973.91;4308013;33;20183;-73
2022/01/16 11:06:14;;;;;;;32.97;13.88;;;;;;;-1.34;100.00;98978.97;4293120;33;20066;-73
2022/01/16 11:08:40;;;;;;;43.47;13.50;;;;;;;-1.00;100.00;99011.28;4304976;33;20041;-73
2022/01/16 11:11:07;;;;;;;41.20;14.57;;;;;;;-0.97;100.00;99013.59;4295608;33;20172;-73
2022/01/16 11:13:35;;;;;;;37.78;14.65;;;;;;;-1.42;100.00;98952.59;4305214;33;20090;-77
2022/01/16 11:16:05;;;;;;;33.55;13.50;;;;;;;-1.07;100.00;98997.13;4309122;33;20184;-74
2022/01/16 11:18:38;;;;;;;44.03;13.93;;;;;;;-1.27;100.00;98950.03;4310657;33;20051;-73
2022/01/16 11:26:22;;;;;;;;;;;;;;;-1.01;100.00;98985.84;4342058;33;20036;-73
2022/01/16 11:28:51;;;;;;;46.37;13.82;;;;;;;-1.05;100.00;98984.53;4341000;33;19944;-76
2022/01/16 11:31:18;;;;;;;46.17;14.20;;;;;;;-1.04;100.00;98980.91;4342438;33;20070;-73
2022/01/16 11:33:46;;;;;;;45.60;14.10;;;;;;;-1.13;100.00;98957.19;4347003;33;20433;-74
2022/01/16 11:36:25;;;;;;;48.90;15.38;;;;;;;-1.03;100.00;98977.28;4358011;32;20098;-73
2022/01/16 11:38:58;;;;;;;43.60;13.88;;;;;;;-0.96;100.00;98952.62;4355563;32;20036;-76
2022/01/16 11:41:35;;;;;;;54.88;20.70;;;;;;;-0.86;100.00;98968.22;4333737;33;20043;-73
2022/01/16 11:44:07;;;;;;;55.47;16.52;;;;;;;-0.78;100.00;98960.22;4329043;33;20389;-74
2022/01/16 11:46:40;;;;;;;52.55;18.25;;;;;;;-0.97;100.00;98918.44;4330177;33;20062;-76
2022/01/16 11:49:13;;;;;;;57.47;15.52;;;;;;;-0.62;100.00;98953.16;4341046;33;20074;-74
2022/01/16 11:51:40;;;;;;;54.83;19.10;;;;;;;-1.58;100.00;98804.81;4341623;33;20359;-73
2022/01/16 11:54:08;;;;;;;47.30;15.80;;;;;;;-0.72;100.00;98958.69;4352096;33;20075;-74
2022/01/16 11:56:38;;;;;;;53.15;18.27;;;;;;;-0.74;100.00;98956.22;4355876;32;20047;-73
2022/01/16 11:59:29;;;;;;;45.65;15.40;;;;;;;-0.83;100.00;98962.59;4356472;32;20066;-74
2022/01/16 12:02:02;;;;;;;51.70;17.23;;;;;;;-0.80;100.00;98946.38;4355434;32;20068;-74
2022/01/16 12:04:28;;;;;;;;;;;;;;;-0.58;100.00;98943.84;4355806;32;20032;-74
2022/01/16 12:06:59;;;;;;;59.90;16.85;;;;;;;-0.53;100.00;98952.06;4354616;32;20690;-73
2022/01/16 12:09:58;;;;;;;40.00;14.00;;;;;;;-0.85;100.00;98906.41;4357248;32;20075;-73